createdAt,value
2022-11-27T00:01:34.935Z,41.60
2022-11-27T00:04:02.983Z,46.33
2022-11-27T00:06:31.869Z,42.30
2022-11-27T00:09:02.289Z,40.50
2022-11-27T00:11:31.816Z,43.47
2022-11-27T00:14:00.084Z,43.93
2022-11-27T00:16:28.705Z,40.23
2022-11-27T00:18:56.189Z,40.60
2022-11-27T00:21:28.530Z,41.87
2022-11-27T00:23:58.644Z,58.80
2022-11-27T00:26:27.740Z,66.77
2022-11-27T00:28:56.109Z,54.10
2022-11-27T00:31:30.587Z,54.67
2022-11-27T00:34:01.065Z,61.43
2022-11-27T00:36:31.210Z,80.10
2022-11-27T00:38:58.940Z,47.33
2022-11-27T00:41:29.348Z,54.33
2022-11-27T00:43:57.617Z,57.20
2022-11-27T00:46:30.112Z,45.20
2022-11-27T00:49:02.589Z,53.83
2022-11-27T00:51:30.655Z,50.87
2022-11-27T00:53:59.309Z,46.67
2022-11-27T00:56:31.782Z,52.57
2022-11-27T00:59:00.110Z,49.53
2022-11-27T01:01:34.380Z,47.90
2022-11-27T01:04:04.606Z,54.00
2022-11-27T01:06:32.685Z,42.73
2022-11-27T01:09:00.643Z,41.47
2022-11-27T01:11:32.766Z,41.70
2022-11-27T01:14:08.075Z,41.50
2022-11-27T01:16:38.546Z,38.67
2022-11-27T01:19:10.212Z,46.90
2022-11-27T01:21:37.691Z,42.57
2022-11-27T01:24:06.085Z,41.73
2022-11-27T01:26:33.654Z,39.10
2022-11-27T01:29:01.573Z,42.10
2022-11-27T01:31:33.185Z,41.63
2022-11-27T01:34:05.468Z,36.13
2022-11-27T01:36:34.572Z,39.27
2022-11-27T01:39:02.743Z,35.37
2022-11-27T01:41:37.200Z,36.47
2022-11-27T01:44:24.554Z,44.87
2022-11-27T01:47:13.905Z,43.00
2022-11-27T01:49:52.699Z,38.17
2022-11-27T01:52:34.407Z,38.00
2022-11-27T01:55:31.043Z,42.03
2022-11-27T01:58:13.464Z,37.63
2022-11-27T02:00:41.604Z,36.70
2022-11-27T02:03:09.417Z,38.27
2022-11-27T02:05:37.053Z,33.10
2022-11-27T02:08:08.902Z,35.30
2022-11-27T02:10:52.435Z,40.83
2022-11-27T02:13:46.344Z,43.93
2022-11-27T02:16:32.847Z,55.63
2022-11-27T02:19:04.856Z,40.00
2022-11-27T02:21:50.949Z,33.67
2022-11-27T02:24:50.007Z,33.93
2022-11-27T02:27:32.372Z,35.07
2022-11-27T02:30:03.318Z,38.43
2022-11-27T02:33:00.251Z,38.37
2022-11-27T02:35:48.219Z,34.67
2022-11-27T02:38:48.237Z,36.10
2022-11-27T02:41:27.055Z,47.43
2022-11-27T02:43:56.068Z,36.00
2022-11-27T02:46:24.918Z,36.27
2022-11-27T02:49:04.273Z,34.13
2022-11-27T02:51:39.935Z,43.00
2022-11-27T02:54:13.787Z,39.57
2022-11-27T02:56:43.193Z,43.43
2022-11-27T02:59:14.251Z,43.30
2022-11-27T03:01:56.156Z,41.17
2022-11-27T03:04:34.634Z,41.33
2022-11-27T03:07:15.872Z,37.87
2022-11-27T03:09:50.548Z,37.77
2022-11-27T03:12:19.430Z,40.57
2022-11-27T03:14:48.009Z,42.03
2022-11-27T03:17:33.247Z,45.60
2022-11-27T03:20:27.034Z,40.47
2022-11-27T03:22:58.122Z,44.87
2022-11-27T03:25:25.618Z,41.70
2022-11-27T03:28:01.819Z,37.50
2022-11-27T03:30:29.324Z,47.33
2022-11-27T03:32:56.920Z,91.77
2022-11-27T03:35:27.357Z,43.77
2022-11-27T03:37:56.048Z,40.87
2022-11-27T03:40:32.948Z,41.83
2022-11-27T03:43:19.741Z,41.43
2022-11-27T03:46:01.479Z,45.53
2022-11-27T03:48:49.149Z,42.03
2022-11-27T03:51:42.450Z,52.73
2022-11-27T03:54:27.840Z,47.60
2022-11-27T03:57:35.140Z,39.60
2022-11-27T04:00:08.830Z,53.17
2022-11-27T04:02:47.735Z,58.93
2022-11-27T04:05:15.647Z,53.43
2022-11-27T04:07:43.376Z,45.47
2022-11-27T04:10:12.356Z,46.07
2022-11-27T04:12:39.888Z,44.03
2022-11-27T04:15:08.178Z,41.23
2022-11-27T04:17:35.680Z,40.23
2022-11-27T04:20:03.710Z,80.47
2022-11-27T04:22:31.253Z,60.10
2022-11-27T04:24:58.793Z,35.80
2022-11-27T04:27:26.262Z,39.17
2022-11-27T04:29:53.644Z,52.00
2022-11-27T04:32:21.053Z,43.63
2022-11-27T04:34:48.615Z,31.33
2022-11-27T04:37:16.116Z,40.67
2022-11-27T04:39:43.568Z,38.00
2022-11-27T04:42:11.055Z,68.30
2022-11-27T04:44:38.815Z,72.13
2022-11-27T04:47:06.530Z,76.10
2022-11-27T04:49:34.235Z,47.73
2022-11-27T04:52:01.668Z,55.67
2022-11-27T04:54:29.069Z,29.00
2022-11-27T04:56:56.482Z,35.67
2022-11-27T04:59:23.999Z,70.03
2022-11-27T05:01:51.506Z,70.97
2022-11-27T05:04:19.058Z,27.97
2022-11-27T05:06:46.555Z,40.50
2022-11-27T05:09:14.180Z,41.50
2022-11-27T05:11:41.608Z,56.70
2022-11-27T05:14:15.275Z,35.13
2022-11-27T05:16:45.723Z,73.13
2022-11-27T05:19:15.141Z,72.27
2022-11-27T05:21:43.905Z,63.20
2022-11-27T05:24:12.208Z,71.37
2022-11-27T05:26:41.625Z,58.77
2022-11-27T05:29:10.799Z,80.20
2022-11-27T05:31:38.907Z,34.17
2022-11-27T05:34:06.608Z,54.30
2022-11-27T05:36:35.110Z,80.47
2022-11-27T05:39:04.975Z,103.23
2022-11-27T05:41:33.528Z,43.63
2022-11-27T05:44:01.024Z,30.77
2022-11-27T05:46:28.706Z,77.03
2022-11-27T05:48:56.246Z,54.83
2022-11-27T05:51:23.693Z,90.20
2022-11-27T05:53:51.236Z,59.00
2022-11-27T05:56:19.167Z,102.43
2022-11-27T05:58:48.398Z,55.30
2022-11-27T06:01:18.137Z,80.97
2022-11-27T06:03:46.014Z,31.47
2022-11-27T06:06:17.417Z,53.03
2022-11-27T06:08:45.990Z,43.97
2022-11-27T06:11:18.771Z,50.37
2022-11-27T06:13:47.799Z,95.90
2022-11-27T06:16:22.437Z,61.83
2022-11-27T06:18:52.925Z,45.80
2022-11-27T06:21:21.960Z,50.13
2022-11-27T06:23:49.948Z,96.27
2022-11-27T06:26:21.738Z,76.13
2022-11-27T06:28:50.228Z,42.93
2022-11-27T06:31:23.945Z,32.47
2022-11-27T06:33:53.649Z,44.73
2022-11-27T06:36:24.122Z,42.40
2022-11-27T06:38:51.627Z,56.10
2022-11-27T06:41:24.839Z,34.27
2022-11-27T06:43:52.429Z,39.30
2022-11-27T06:46:22.992Z,52.07
2022-11-27T06:48:52.798Z,57.43
2022-11-27T06:51:27.253Z,46.53
2022-11-27T06:53:55.205Z,41.03
2022-11-27T06:56:26.572Z,54.23
2022-11-27T06:58:58.256Z,38.17
2022-11-27T07:01:28.401Z,34.17
2022-11-27T07:03:57.204Z,46.10
2022-11-27T07:06:27.017Z,62.47
2022-11-27T07:08:55.400Z,58.50
2022-11-27T07:11:29.985Z,44.10
2022-11-27T07:14:03.987Z,44.00
2022-11-27T07:16:35.315Z,33.93
2022-11-27T07:19:06.697Z,42.47
2022-11-27T07:21:34.470Z,34.53
2022-11-27T07:24:01.924Z,30.40
2022-11-27T07:26:31.173Z,30.43
2022-11-27T07:28:58.938Z,31.53
2022-11-27T07:31:29.425Z,29.63
2022-11-27T07:33:57.718Z,48.93
2022-11-27T07:36:28.995Z,59.70
2022-11-27T07:38:58.314Z,35.97
2022-11-27T07:41:30.555Z,33.00
2022-11-27T07:43:59.905Z,53.87
2022-11-27T07:46:27.386Z,26.53
2022-11-27T07:48:54.809Z,55.50
2022-11-27T07:51:22.980Z,121.70
2022-11-27T07:53:53.513Z,40.07
2022-11-27T07:56:21.744Z,32.93
2022-11-27T07:58:49.647Z,42.77
2022-11-27T08:01:19.618Z,33.87
2022-11-27T08:03:47.404Z,28.73
2022-11-27T08:06:26.640Z,60.83
2022-11-27T08:08:56.863Z,29.93
2022-11-27T08:11:29.847Z,20.93
2022-11-27T08:14:00.538Z,24.20
2022-11-27T08:16:29.122Z,22.80
2022-11-27T08:18:57.301Z,30.67
2022-11-27T08:21:25.116Z,24.40
2022-11-27T08:23:52.912Z,17.97
2022-11-27T08:26:21.241Z,18.40
2022-11-27T08:28:48.671Z,26.07
2022-11-27T08:31:16.291Z,23.50
2022-11-27T08:33:43.770Z,26.00
2022-11-27T08:36:17.496Z,20.50
2022-11-27T08:38:46.412Z,20.10
2022-11-27T08:41:14.182Z,18.83
2022-11-27T08:43:41.757Z,17.70
2022-11-27T08:46:10.170Z,18.23
2022-11-27T08:48:37.837Z,18.63
2022-11-27T08:51:14.859Z,17.43
2022-11-27T08:53:45.734Z,20.77
2022-11-27T08:56:23.437Z,25.03
2022-11-27T08:58:51.532Z,20.47
2022-11-27T09:01:29.135Z,22.43
2022-11-27T09:03:57.199Z,23.67
2022-11-27T09:06:29.395Z,24.23
2022-11-27T09:09:06.189Z,25.27
2022-11-27T09:11:35.140Z,21.17
2022-11-27T09:14:04.712Z,19.40
2022-11-27T09:16:32.746Z,19.00
2022-11-27T09:19:00.316Z,19.27
2022-11-27T09:21:30.866Z,20.93
2022-11-27T09:24:02.343Z,20.70
2022-11-27T09:26:30.410Z,20.93
2022-11-27T09:28:59.717Z,21.57
2022-11-27T09:31:27.720Z,23.00
2022-11-27T09:33:55.291Z,24.33
2022-11-27T09:36:25.935Z,23.20
2022-11-27T09:38:54.266Z,25.20
2022-11-27T09:41:44.812Z,36.93
2022-11-27T09:44:40.287Z,25.23
2022-11-27T09:47:24.608Z,22.73
2022-11-27T09:50:04.499Z,24.57
2022-11-27T09:53:04.732Z,20.20
2022-11-27T09:55:44.044Z,20.60
2022-11-27T09:58:32.866Z,19.63
2022-11-27T10:01:00.360Z,23.97
2022-11-27T10:03:28.927Z,24.37
2022-11-27T10:06:44.133Z,22.00
2022-11-27T10:09:38.659Z,25.20
2022-11-27T10:12:36.363Z,28.50
2022-11-27T10:15:34.513Z,23.20
2022-11-27T10:18:36.077Z,23.53
2022-11-27T10:21:16.183Z,23.00
2022-11-27T10:24:19.124Z,20.27
2022-11-27T10:26:48.880Z,20.60
2022-11-27T10:29:34.184Z,20.53
2022-11-27T10:32:53.656Z,20.33
2022-11-27T10:35:20.219Z,17.77
2022-11-27T10:38:00.986Z,16.20
2022-11-27T10:40:40.671Z,17.17
2022-11-27T10:43:18.925Z,15.40
2022-11-27T10:46:15.291Z,15.70
2022-11-27T10:48:42.937Z,20.17
2022-11-27T10:51:30.728Z,19.20
2022-11-27T10:54:01.235Z,19.93
2022-11-27T10:56:50.366Z,22.60
2022-11-27T10:59:33.023Z,18.70
2022-11-27T11:02:03.587Z,19.13
2022-11-27T11:04:39.749Z,19.13
2022-11-27T11:07:29.422Z,19.87
2022-11-27T11:09:57.272Z,29.60
2022-11-27T11:12:25.074Z,33.93
2022-11-27T11:14:56.406Z,23.40
2022-11-27T11:17:34.497Z,19.90
2022-11-27T11:20:30.852Z,22.57
2022-11-27T11:22:58.566Z,19.93
2022-11-27T11:25:26.031Z,19.10
2022-11-27T11:27:53.780Z,18.73
2022-11-27T11:30:29.309Z,17.07
2022-11-27T11:33:02.971Z,17.13
2022-11-27T11:35:34.926Z,25.90
2022-11-27T11:38:05.827Z,17.60
2022-11-27T11:40:38.060Z,17.30
2022-11-27T11:43:24.254Z,14.87
2022-11-27T11:45:51.761Z,14.73
2022-11-27T11:48:27.619Z,15.50
2022-11-27T11:51:12.268Z,15.33
2022-11-27T11:53:45.617Z,13.63
2022-11-27T11:56:41.892Z,14.43
2022-11-27T11:59:45.323Z,13.93
2022-11-27T12:02:59.825Z,16.70
2022-11-27T12:05:36.650Z,14.70
2022-11-27T12:08:44.528Z,16.27
2022-11-27T12:11:18.477Z,13.10
2022-11-27T12:14:36.280Z,14.30
2022-11-27T12:17:38.485Z,15.77
2022-11-27T12:20:11.313Z,15.00
2022-11-27T12:22:57.380Z,17.43
2022-11-27T12:25:37.568Z,18.80
2022-11-27T12:28:22.942Z,14.53
2022-11-27T12:31:30.486Z,13.80
2022-11-27T12:34:03.312Z,13.93
2022-11-27T12:37:15.713Z,15.87
2022-11-27T12:40:40.833Z,19.50
2022-11-27T12:43:27.752Z,14.43
2022-11-27T12:46:20.175Z,15.57
2022-11-27T12:49:11.577Z,16.10
2022-11-27T12:52:17.376Z,17.53
2022-11-27T12:55:15.593Z,18.90
2022-11-27T12:58:01.016Z,18.13
2022-11-27T13:00:31.458Z,18.93
2022-11-27T13:03:25.597Z,18.20
2022-11-27T13:06:24.539Z,18.67
2022-11-27T13:09:10.198Z,20.53
2022-11-27T13:11:40.280Z,18.03
2022-11-27T13:14:20.205Z,19.00
2022-11-27T13:17:01.074Z,22.73
2022-11-27T13:19:48.250Z,22.60
2022-11-27T13:22:27.616Z,22.20
2022-11-27T13:24:57.079Z,23.20
2022-11-27T13:27:27.525Z,24.83
2022-11-27T13:30:04.495Z,26.07
2022-11-27T13:32:48.204Z,30.40
2022-11-27T13:35:42.861Z,23.90
2022-11-27T13:38:13.077Z,27.97
2022-11-27T13:40:50.089Z,30.90
2022-11-27T13:43:47.805Z,32.80
2022-11-27T13:46:31.265Z,33.87
2022-11-27T13:49:05.390Z,28.43
2022-11-27T13:51:39.033Z,25.87
2022-11-27T13:54:16.056Z,30.87
2022-11-27T13:56:44.057Z,39.90
2022-11-27T13:59:25.192Z,55.47
2022-11-27T14:02:04.486Z,44.93
2022-11-27T14:04:34.091Z,35.33
2022-11-27T14:07:07.237Z,31.07
2022-11-27T14:09:42.334Z,28.57
2022-11-27T14:12:31.088Z,36.87
2022-11-27T14:15:24.380Z,25.13
2022-11-27T14:18:03.970Z,28.10
2022-11-27T14:20:35.779Z,31.20
2022-11-27T14:23:18.543Z,45.40
2022-11-27T14:25:46.173Z,37.73
2022-11-27T14:28:22.067Z,29.83
2022-11-27T14:30:59.899Z,39.73
2022-11-27T14:33:31.210Z,35.90
2022-11-27T14:36:04.031Z,41.80
2022-11-27T14:38:35.043Z,28.77
2022-11-27T14:41:21.514Z,23.80
2022-11-27T14:43:49.975Z,20.67
2022-11-27T14:46:20.978Z,27.13
2022-11-27T14:48:57.186Z,23.80
2022-11-27T14:51:35.208Z,20.50
2022-11-27T14:54:09.407Z,19.73
2022-11-27T14:56:43.877Z,22.87
2022-11-27T14:59:18.164Z,17.33
2022-11-27T15:01:48.009Z,20.17
2022-11-27T15:04:37.596Z,27.83
2022-11-27T15:07:22.330Z,25.80
2022-11-27T15:09:53.504Z,23.10
2022-11-27T15:12:34.270Z,25.80
2022-11-27T15:15:23.289Z,26.10
2022-11-27T15:17:55.852Z,19.03
2022-11-27T15:20:45.808Z,19.00
2022-11-27T15:23:34.455Z,21.40
2022-11-27T15:26:11.018Z,19.50
2022-11-27T15:28:55.398Z,19.50
2022-11-27T15:31:29.445Z,22.30
2022-11-27T15:34:01.270Z,22.53
2022-11-27T15:36:58.233Z,24.00
2022-11-27T15:39:53.700Z,35.03
2022-11-27T15:42:22.547Z,50.37
2022-11-27T15:44:54.560Z,34.90
2022-11-27T15:47:33.739Z,52.37
2022-11-27T15:50:01.333Z,51.03
2022-11-27T15:52:29.473Z,41.33
2022-11-27T15:54:56.997Z,41.50
2022-11-27T15:57:25.341Z,42.17
2022-11-27T15:59:53.004Z,41.83
2022-11-27T16:02:20.546Z,39.57
2022-11-27T16:04:48.007Z,42.30
2022-11-27T16:07:15.639Z,48.27
2022-11-27T16:09:43.108Z,33.53
2022-11-27T16:12:10.520Z,33.90
2022-11-27T16:14:38.697Z,38.23
2022-11-27T16:17:06.444Z,38.10
2022-11-27T16:19:33.817Z,31.43
2022-11-27T16:22:01.359Z,30.73
2022-11-27T16:24:28.756Z,31.40
2022-11-27T16:26:56.289Z,39.57
2022-11-27T16:29:23.737Z,45.23
2022-11-27T16:31:51.267Z,44.33
2022-11-27T16:34:19.001Z,44.10
2022-11-27T16:36:46.490Z,38.80
2022-11-27T16:39:13.912Z,39.53
2022-11-27T16:41:41.382Z,33.97
2022-11-27T16:44:14.723Z,44.70
2022-11-27T16:46:44.424Z,46.73
2022-11-27T16:49:12.734Z,46.33
2022-11-27T16:51:40.884Z,47.37
2022-11-27T16:54:12.830Z,52.77
2022-11-27T16:56:40.591Z,70.63
2022-11-27T16:59:14.199Z,88.97
2022-11-27T17:01:42.821Z,88.50
2022-11-27T17:04:18.764Z,80.17
2022-11-27T17:06:48.296Z,60.53
2022-11-27T17:09:16.767Z,44.73
2022-11-27T17:11:50.630Z,38.67
2022-11-27T17:14:19.816Z,50.67
2022-11-27T17:16:47.735Z,56.00
2022-11-27T17:19:16.779Z,51.70
2022-11-27T17:21:44.685Z,48.93
2022-11-27T17:24:15.890Z,48.67
2022-11-27T17:26:45.301Z,51.83
2022-11-27T17:29:16.610Z,50.47
2022-11-27T17:31:44.744Z,55.83
2022-11-27T17:34:14.986Z,57.30
2022-11-27T17:36:44.944Z,53.63
2022-11-27T17:39:15.394Z,62.10
2022-11-27T17:41:45.345Z,54.20
2022-11-27T17:44:13.243Z,52.10
2022-11-27T17:46:40.991Z,55.90
2022-11-27T17:49:08.821Z,56.23
2022-11-27T17:51:37.357Z,81.87
2022-11-27T17:54:05.644Z,72.40
2022-11-27T17:56:34.859Z,74.63
2022-11-27T17:59:03.174Z,74.83
2022-11-27T18:01:31.306Z,55.43
2022-11-27T18:04:02.237Z,49.43
2022-11-27T18:06:30.618Z,52.93
2022-11-27T18:08:58.480Z,48.17
2022-11-27T18:11:29.429Z,47.70
2022-11-27T18:13:57.136Z,48.93
2022-11-27T18:16:31.974Z,48.53
2022-11-27T18:19:06.487Z,46.30
2022-11-27T18:21:34.668Z,43.00
2022-11-27T18:29:42.641Z,47.83
2022-11-27T18:32:12.101Z,69.33
2022-11-27T18:34:40.554Z,70.90
2022-11-27T18:37:08.630Z,85.53
2022-11-27T18:39:37.641Z,133.73
2022-11-27T18:42:06.543Z,117.10
2022-11-27T18:44:39.668Z,79.87
2022-11-27T18:47:10.776Z,50.10
2022-11-27T18:49:39.688Z,54.27
2022-11-27T18:52:08.231Z,104.23
2022-11-27T18:54:37.388Z,91.50
2022-11-27T18:57:07.232Z,68.83
2022-11-27T18:59:35.418Z,63.23
2022-11-27T19:02:04.369Z,51.53
2022-11-27T19:04:32.047Z,44.37
2022-11-27T19:06:59.465Z,53.10
2022-11-27T19:09:26.857Z,64.80
2022-11-27T19:11:54.327Z,42.30
2022-11-27T19:14:21.816Z,50.17
2022-11-27T19:16:49.844Z,54.87
2022-11-27T19:19:53.443Z,53.23
2022-11-27T19:22:08.177Z,44.80
2022-11-27T19:24:37.078Z,52.80
2022-11-27T19:27:04.619Z,45.53
2022-11-27T19:29:32.095Z,42.93
2022-11-27T19:32:01.286Z,44.27
2022-11-27T19:34:29.245Z,46.90
2022-11-27T19:36:58.539Z,44.77
2022-11-27T19:39:27.442Z,45.43
2022-11-27T19:41:55.110Z,46.53
2022-11-27T19:44:22.492Z,43.20
2022-11-27T19:46:50.036Z,53.37
2022-11-27T19:49:18.458Z,86.50
2022-11-27T19:51:46.696Z,89.40
2022-11-27T19:54:14.950Z,88.67
2022-11-27T19:56:43.354Z,91.83
2022-11-27T19:59:11.628Z,86.07
2022-11-27T20:01:40.486Z,83.57
2022-11-27T20:04:11.332Z,69.47
2022-11-27T20:06:39.663Z,59.70
2022-11-27T20:09:07.539Z,54.23
2022-11-27T20:11:38.304Z,42.90
2022-11-27T20:14:07.088Z,38.73
2022-11-27T20:16:38.122Z,37.87
2022-11-27T20:19:06.348Z,38.07
2022-11-27T20:21:34.242Z,41.17
2022-11-27T20:24:02.625Z,39.33
2022-11-27T20:26:30.867Z,43.63
2022-11-27T20:28:59.012Z,51.33
2022-11-27T20:31:33.073Z,52.43
2022-11-27T20:34:03.773Z,43.73
2022-11-27T20:36:33.718Z,49.03
2022-11-27T20:39:01.900Z,53.97
2022-11-27T20:41:30.187Z,50.83
2022-11-27T20:44:01.211Z,52.83
2022-11-27T20:46:29.124Z,55.97
2022-11-27T20:48:57.592Z,57.07
2022-11-27T20:51:28.839Z,62.43
2022-11-27T20:53:58.333Z,61.30
2022-11-27T20:56:26.258Z,59.20
2022-11-27T20:58:54.392Z,63.93
2022-11-27T21:01:21.839Z,68.97
2022-11-27T21:03:52.614Z,87.03
2022-11-27T21:06:23.464Z,65.47
2022-11-27T21:08:51.739Z,49.20
2022-11-27T21:11:26.176Z,45.57
2022-11-27T21:13:56.167Z,45.47
2022-11-27T21:16:29.683Z,45.93
2022-11-27T21:19:01.649Z,47.73
2022-11-27T21:21:29.569Z,43.43
2022-11-27T21:23:57.978Z,43.87
2022-11-27T21:26:26.147Z,49.33
2022-11-27T21:28:53.746Z,43.03
2022-11-27T21:31:24.940Z,43.90
2022-11-27T21:34:02.220Z,44.90
2022-11-27T21:36:33.622Z,44.63
2022-11-27T21:39:02.310Z,46.33
2022-11-27T21:41:31.812Z,50.10
2022-11-27T21:44:01.995Z,47.37
2022-11-27T21:46:30.391Z,46.20
2022-11-27T21:49:02.276Z,48.70
2022-11-27T21:51:30.989Z,48.50
2022-11-27T21:53:59.685Z,44.60
2022-11-27T21:56:29.417Z,45.03
2022-11-27T21:58:57.098Z,45.90
2022-11-27T22:01:25.916Z,43.57
2022-11-27T22:03:57.568Z,49.67
2022-11-27T22:06:28.972Z,48.70
2022-11-27T22:08:59.091Z,49.80
2022-11-27T22:11:30.444Z,55.07
2022-11-27T22:14:00.982Z,53.87
2022-11-27T22:16:31.942Z,57.97
2022-11-27T22:19:00.671Z,76.40
2022-11-27T22:21:30.363Z,67.83
2022-11-27T22:23:58.756Z,58.73
2022-11-27T22:26:26.308Z,51.23
2022-11-27T22:28:54.202Z,45.60
2022-11-27T22:31:34.724Z,47.67
2022-11-27T22:34:02.337Z,52.50
2022-11-27T22:36:33.149Z,46.87
2022-11-27T22:39:04.580Z,48.67
2022-11-27T22:41:36.316Z,43.60
2022-11-27T22:44:15.216Z,43.30
2022-11-27T22:46:43.464Z,45.13
2022-11-27T22:49:14.239Z,46.40
2022-11-27T22:51:42.146Z,47.57
2022-11-27T22:54:13.836Z,46.30
2022-11-27T22:56:41.846Z,46.87
2022-11-27T23:01:57.972Z,42.40
2022-11-27T23:04:25.441Z,40.00
2022-11-27T23:06:52.925Z,46.53
2022-11-27T23:09:20.315Z,44.93
2022-11-27T23:11:48.105Z,43.63
2022-11-27T23:14:15.807Z,43.27
2022-11-27T23:16:43.363Z,44.77
2022-11-27T23:19:11.910Z,44.60
2022-11-27T23:21:40.046Z,47.43
2022-11-27T23:24:11.935Z,45.20
2022-11-27T23:26:39.490Z,47.03
2022-11-27T23:29:07.519Z,46.37
2022-11-27T23:31:36.287Z,47.17
2022-11-27T23:34:08.530Z,47.50
2022-11-27T23:36:37.358Z,42.50
2022-11-27T23:39:07.561Z,47.33
2022-11-27T23:41:35.447Z,47.93
2022-11-27T23:44:02.965Z,43.73
2022-11-27T23:46:31.638Z,45.03
2022-11-27T23:49:00.519Z,44.13
2022-11-27T23:51:33.469Z,46.57
2022-11-27T23:54:02.247Z,48.90
2022-11-27T23:56:32.114Z,50.03
2022-11-27T23:59:00.186Z,45.73
